Terminal Aerodrome Forecast
Issued by NWS

Home | Current Version | Previous Version | Text Only | Print | Product List | Glossary Off
Versions: 1 2 3 4 5 6 7 8 9 10 11 12 13 14 15 16 17 18

000
FTUS43 KBIS 110500
TAFDIK
TAF
KDIK 110528Z 1106/1206 VRB04KT P6SM SKC
     FM110900 35006KT P6SM SKC
     FM111200 02007KT P6SM FEW120
     FM111700 04011KT P6SM SCT090 BKN130
     FM120100 04007KT P6SM SCT050 BKN080=

USA.gov is the U.S. government's official web portal to all federal, state and local government web resources and services.